Aviation Digital Data Service (ADDS)

Output produced by METARs form (2226 UTC 12 February 2016)
found at http://www.aviationweather.gov/adds/metars/
 
KMIV 122154Z AUTO 27004KT 10SM OVC070 M04/M14 A3005 RMK AO2 SLPNO T10391139
KMIV 121740Z 1218/1318 27006KT P6SM SCT150 
     FM122000 VRB03KT P6SM OVC100 
     FM130500 24005KT 5SM -SHSN BKN030 
     FM131000 29013G28KT P6SM BKN050 
     FM131300 32015G30KT P6SM SCT050 
     FM131700 31020G35KT P6SM BKN050